Time;durP1;ratioP1;P1;durP2;ratioP2;P2;SDS_P1;SDS_P2;PMS_P1;PMS_P2;Temp;Humidity;BMP_temperature;BMP_pressure;BME280_temperature;BME280_humidity;BME280_pressure;Samples;Min_cycle;Max_cycle;Signal;HPM_P1;HPM_P2
2021/11/07 13:10:40;;;;;;;21.02;4.53;;;;;;;;;;7307421;19;20070;-70
2021/11/07 13:13:17;;;;;;;26.55;4.35;;;;;;;;;;7299135;19;20476;-69
2021/11/07 13:21:09;;;;;;;19.67;4.38;;;;;;;;;;7309162;19;20293;-69
2021/11/07 13:26:22;;;;;;;10.13;3.20;;;;;;;;;;7306738;19;20353;-68
2021/11/07 13:31:42;;;;;;;26.25;4.85;;;;;;;;;;7307460;19;20290;-68
2021/11/07 13:34:09;;;;;;;19.47;3.60;;;;;;;;;;7306483;19;20366;-70
2021/11/07 13:36:41;;;;;;;38.33;5.03;;;;;;;;;;7307297;19;20289;-68
2021/11/07 13:39:07;;;;;;;24.30;4.00;;;;;;;;;;7306695;19;20286;-70
2021/11/07 13:41:33;;;;;;;9.60;3.30;;;;;;;;;;7306975;19;20381;-67
2021/11/07 13:44:17;;;;;;;15.10;3.80;;;;;;;;;;7308302;19;20349;-67
2021/11/07 13:46:54;;;;;;;20.25;4.72;;;;;;;;;;7308024;19;20309;-68
2021/11/07 13:49:21;;;;;;;15.60;4.32;;;;;;;;;;7306945;19;19995;-69
2021/11/07 13:51:51;;;;;;;14.85;3.75;;;;;;;;;;7304075;19;20294;-68
2021/11/07 13:54:16;;;;;;;14.63;3.92;;;;;;;;;;7304867;19;20359;-69
2021/11/07 13:56:45;;;;;;;19.20;3.15;;;;;;;;;;7303908;19;20330;-71
2021/11/07 13:59:25;;;;;;;11.90;3.38;;;;;;;;;;7308528;19;20324;-69
2021/11/07 14:01:51;;;;;;;7.55;3.45;;;;;;;;;;7309163;19;20299;-70
2021/11/07 14:04:17;;;;;;;14.88;4.32;;;;;;;;;;7306548;19;20425;-71
2021/11/07 14:06:43;;;;;;;23.15;4.78;;;;;;;;;;7311264;19;20280;-70
2021/11/07 14:09:09;;;;;;;8.38;3.45;;;;;;;;;;7308359;19;20439;-71
2021/11/07 14:11:36;;;;;;;10.75;3.65;;;;;;;;;;7305317;19;20310;-73
2021/11/07 14:14:03;;;;;;;15.55;3.95;;;;;;;;;;7309407;19;20456;-70
2021/11/07 14:16:31;;;;;;;11.85;3.58;;;;;;;;;;7306560;19;19999;-69
2021/11/07 14:18:56;;;;;;;15.65;4.20;;;;;;;;;;7308526;19;20362;-69
2021/11/07 14:21:26;;;;;;;8.48;3.97;;;;;;;;;;7308475;19;19994;-70
2021/11/07 14:26:37;;;;;;;11.07;4.50;;;;;;;;;;7307333;19;20452;-70
2021/11/07 14:31:35;;;;;;;8.00;4.20;;;;;;;;;;7309883;19;20010;-72
2021/11/07 14:34:10;;;;;;;11.45;5.18;;;;;;;;;;7308981;19;20424;-72
2021/11/07 14:39:32;;;;;;;12.25;5.95;;;;;;;;;;7307521;19;20317;-70
2021/11/07 14:42:10;;;;;;;9.57;4.45;;;;;;;;;;7308440;19;20421;-70
2021/11/07 14:44:41;;;;;;;17.45;6.00;;;;;;;;;;7305885;19;20289;-69
2021/11/07 14:47:14;;;;;;;13.10;5.22;;;;;;;;;;7307642;19;20549;-71
2021/11/07 14:50:05;;;;;;;12.50;5.72;;;;;;;;;;7306799;19;20030;-70
2021/11/07 14:52:50;;;;;;;11.32;5.03;;;;;;;;;;7305834;19;20066;-69
2021/11/07 14:55:41;;;;;;;10.60;4.47;;;;;;;;;;7307385;19;19999;-69
2021/11/07 15:00:56;;;;;;;11.07;4.47;;;;;;;;;;7306638;19;20007;-69
2021/11/07 15:03:26;;;;;;;10.68;4.72;;;;;;;;;;7308309;19;20612;-69
2021/11/07 15:06:17;;;;;;;12.30;5.18;;;;;;;;;;7307267;19;20472;-72
2021/11/07 15:08:50;;;;;;;8.75;4.03;;;;;;;;;;7307312;19;20058;-69
2021/11/07 15:19:29;;;;;;;9.48;5.05;;;;;;;;;;7273147;19;71353;-68
2021/11/07 15:24:39;;;;;;;13.68;5.78;;;;;;;;;;7302487;19;20417;-69
2021/11/07 15:27:06;;;;;;;17.75;6.15;;;;;;;;;;7303697;19;20289;-69
2021/11/07 15:29:35;;;;;;;14.45;6.10;;;;;;;;;;7304453;19;20444;-69
2021/11/07 15:32:00;;;;;;;12.18;5.90;;;;;;;;;;7303926;19;20275;-69
2021/11/07 15:34:28;;;;;;;10.93;5.20;;;;;;;;;;7302999;19;20286;-69
2021/11/07 15:36:54;;;;;;;16.90;5.63;;;;;;;;;;7303288;19;20434;-69
2021/11/07 15:39:21;;;;;;;11.20;5.38;;;;;;;;;;7306733;19;20335;-69
2021/11/07 15:42:04;;;;;;;11.30;5.13;;;;;;;;;;7310886;19;20289;-68
2021/11/07 15:44:56;;;;;;;12.88;5.18;;;;;;;;;;7307728;19;20305;-69
2021/11/07 15:47:25;;;;;;;13.23;5.57;;;;;;;;;;7308981;19;20486;-69
2021/11/07 15:50:02;;;;;;;11.40;5.43;;;;;;;;;;7308064;19;20310;-69
